sensor_id;sensor_type;location;lat;lon;timestamp;P1;durP1;ratioP1;P2;durP2;ratioP2
63534;SDS011;55128;50.230;18.944;2024-03-17T00:04:25;5.13;;;3.97;;
63534;SDS011;55128;50.230;18.944;2024-03-17T00:09:27;10.50;;;3.97;;
63534;SDS011;55128;50.230;18.944;2024-03-17T00:14:27;7.03;;;3.50;;
63534;SDS011;55128;50.230;18.944;2024-03-17T00:19:28;8.40;;;3.60;;
63534;SDS011;55128;50.230;18.944;2024-03-17T00:24:28;4.43;;;3.38;;
63534;SDS011;55128;50.230;18.944;2024-03-17T00:29:34;6.40;;;3.88;;
63534;SDS011;55128;50.230;18.944;2024-03-17T00:34:35;4.95;;;3.55;;
63534;SDS011;55128;50.230;18.944;2024-03-17T00:39:35;7.57;;;3.80;;
63534;SDS011;55128;50.230;18.944;2024-03-17T00:44:35;7.93;;;3.67;;
63534;SDS011;55128;50.230;18.944;2024-03-17T00:49:36;5.53;;;3.42;;
63534;SDS011;55128;50.230;18.944;2024-03-17T00:54:36;6.63;;;3.85;;
63534;SDS011;55128;50.230;18.944;2024-03-17T00:59:37;4.68;;;3.80;;
63534;SDS011;55128;50.230;18.944;2024-03-17T01:04:37;10.18;;;4.40;;
63534;SDS011;55128;50.230;18.944;2024-03-17T01:09:39;7.85;;;4.85;;
63534;SDS011;55128;50.230;18.944;2024-03-17T01:14:39;13.57;;;5.87;;
63534;SDS011;55128;50.230;18.944;2024-03-17T01:19:40;11.05;;;6.35;;
63534;SDS011;55128;50.230;18.944;2024-03-17T01:24:40;10.27;;;6.20;;
63534;SDS011;55128;50.230;18.944;2024-03-17T01:29:46;9.48;;;4.90;;
63534;SDS011;55128;50.230;18.944;2024-03-17T01:34:46;9.48;;;4.65;;
63534;SDS011;55128;50.230;18.944;2024-03-17T01:39:46;11.53;;;4.57;;
63534;SDS011;55128;50.230;18.944;2024-03-17T01:44:47;11.03;;;5.33;;
63534;SDS011;55128;50.230;18.944;2024-03-17T01:49:47;8.45;;;4.70;;
63534;SDS011;55128;50.230;18.944;2024-03-17T01:54:50;9.18;;;4.40;;
63534;SDS011;55128;50.230;18.944;2024-03-17T01:59:50;7.57;;;4.00;;
63534;SDS011;55128;50.230;18.944;2024-03-17T02:04:51;11.82;;;4.90;;
63534;SDS011;55128;50.230;18.944;2024-03-17T02:09:51;6.93;;;4.13;;
63534;SDS011;55128;50.230;18.944;2024-03-17T02:14:51;6.82;;;4.00;;
63534;SDS011;55128;50.230;18.944;2024-03-17T02:19:52;7.97;;;4.72;;
63534;SDS011;55128;50.230;18.944;2024-03-17T02:24:52;6.35;;;4.32;;
63534;SDS011;55128;50.230;18.944;2024-03-17T02:29:53;6.68;;;3.92;;
63534;SDS011;55128;50.230;18.944;2024-03-17T02:34:53;13.45;;;4.85;;
63534;SDS011;55128;50.230;18.944;2024-03-17T02:39:54;9.00;;;3.42;;
63534;SDS011;55128;50.230;18.944;2024-03-17T02:44:55;7.60;;;3.67;;
63534;SDS011;55128;50.230;18.944;2024-03-17T02:49:55;7.22;;;3.83;;
63534;SDS011;55128;50.230;18.944;2024-03-17T02:54:56;8.20;;;3.58;;
63534;SDS011;55128;50.230;18.944;2024-03-17T02:59:56;9.88;;;4.10;;
63534;SDS011;55128;50.230;18.944;2024-03-17T03:04:57;8.98;;;4.50;;
63534;SDS011;55128;50.230;18.944;2024-03-17T03:09:57;8.10;;;3.92;;
63534;SDS011;55128;50.230;18.944;2024-03-17T03:14:58;8.23;;;4.13;;
63534;SDS011;55128;50.230;18.944;2024-03-17T03:19:58;7.30;;;3.45;;
63534;SDS011;55128;50.230;18.944;2024-03-17T03:24:59;9.30;;;3.47;;
63534;SDS011;55128;50.230;18.944;2024-03-17T03:29:59;8.70;;;3.70;;
63534;SDS011;55128;50.230;18.944;2024-03-17T03:35:00;7.53;;;3.15;;
63534;SDS011;55128;50.230;18.944;2024-03-17T03:40:00;9.27;;;2.97;;
63534;SDS011;55128;50.230;18.944;2024-03-17T03:45:00;7.03;;;2.83;;
63534;SDS011;55128;50.230;18.944;2024-03-17T03:50:01;8.18;;;3.05;;
63534;SDS011;55128;50.230;18.944;2024-03-17T03:55:01;7.22;;;2.75;;
63534;SDS011;55128;50.230;18.944;2024-03-17T04:00:04;9.75;;;2.72;;
63534;SDS011;55128;50.230;18.944;2024-03-17T04:05:12;8.10;;;3.05;;
63534;SDS011;55128;50.230;18.944;2024-03-17T04:10:13;5.93;;;2.92;;
63534;SDS011;55128;50.230;18.944;2024-03-17T04:15:14;9.82;;;3.00;;
63534;SDS011;55128;50.230;18.944;2024-03-17T04:20:14;6.72;;;2.60;;
63534;SDS011;55128;50.230;18.944;2024-03-17T04:25:16;7.30;;;2.58;;
63534;SDS011;55128;50.230;18.944;2024-03-17T04:30:16;6.45;;;2.42;;
63534;SDS011;55128;50.230;18.944;2024-03-17T04:35:17;9.82;;;3.00;;
63534;SDS011;55128;50.230;18.944;2024-03-17T04:40:17;8.35;;;3.13;;
63534;SDS011;55128;50.230;18.944;2024-03-17T04:45:19;9.18;;;2.75;;
63534;SDS011;55128;50.230;18.944;2024-03-17T04:50:19;7.53;;;3.60;;
63534;SDS011;55128;50.230;18.944;2024-03-17T04:55:21;10.00;;;3.88;;
63534;SDS011;55128;50.230;18.944;2024-03-17T05:00:22;9.55;;;4.18;;
63534;SDS011;55128;50.230;18.944;2024-03-17T05:05:22;9.32;;;4.28;;
63534;SDS011;55128;50.230;18.944;2024-03-17T05:10:23;8.77;;;4.60;;
63534;SDS011;55128;50.230;18.944;2024-03-17T05:15:24;10.15;;;4.55;;
63534;SDS011;55128;50.230;18.944;2024-03-17T05:20:25;8.40;;;4.07;;
63534;SDS011;55128;50.230;18.944;2024-03-17T05:25:25;7.60;;;4.63;;
63534;SDS011;55128;50.230;18.944;2024-03-17T05:30:26;9.10;;;4.13;;
63534;SDS011;55128;50.230;18.944;2024-03-17T05:35:26;10.43;;;4.38;;
63534;SDS011;55128;50.230;18.944;2024-03-17T05:40:27;10.85;;;3.80;;
63534;SDS011;55128;50.230;18.944;2024-03-17T05:45:29;8.05;;;3.95;;
63534;SDS011;55128;50.230;18.944;2024-03-17T05:50:29;9.77;;;3.40;;
63534;SDS011;55128;50.230;18.944;2024-03-17T05:55:30;9.93;;;3.33;;
63534;SDS011;55128;50.230;18.944;2024-03-17T06:00:30;7.22;;;3.35;;
63534;SDS011;55128;50.230;18.944;2024-03-17T06:05:31;6.63;;;3.05;;
63534;SDS011;55128;50.230;18.944;2024-03-17T06:10:36;7.68;;;2.85;;
63534;SDS011;55128;50.230;18.944;2024-03-17T06:15:37;7.68;;;3.50;;
63534;SDS011;55128;50.230;18.944;2024-03-17T06:20:41;7.72;;;3.35;;
63534;SDS011;55128;50.230;18.944;2024-03-17T06:25:44;8.93;;;3.15;;
63534;SDS011;55128;50.230;18.944;2024-03-17T06:30:58;6.78;;;2.47;;
63534;SDS011;55128;50.230;18.944;2024-03-17T06:36:04;8.07;;;2.95;;
63534;SDS011;55128;50.230;18.944;2024-03-17T06:41:04;7.75;;;2.75;;
63534;SDS011;55128;50.230;18.944;2024-03-17T06:46:05;7.23;;;2.80;;
63534;SDS011;55128;50.230;18.944;2024-03-17T06:51:07;7.20;;;2.72;;
63534;SDS011;55128;50.230;18.944;2024-03-17T06:56:08;8.05;;;2.05;;
63534;SDS011;55128;50.230;18.944;2024-03-17T07:01:08;7.65;;;2.55;;
63534;SDS011;55128;50.230;18.944;2024-03-17T07:06:09;5.63;;;2.58;;
63534;SDS011;55128;50.230;18.944;2024-03-17T07:11:10;7.43;;;2.33;;
63534;SDS011;55128;50.230;18.944;2024-03-17T07:16:10;7.20;;;2.50;;
63534;SDS011;55128;50.230;18.944;2024-03-17T07:21:11;7.20;;;2.20;;
63534;SDS011;55128;50.230;18.944;2024-03-17T07:26:11;6.32;;;2.10;;
63534;SDS011;55128;50.230;18.944;2024-03-17T07:31:12;6.88;;;2.38;;
63534;SDS011;55128;50.230;18.944;2024-03-17T07:36:12;8.27;;;2.20;;
63534;SDS011;55128;50.230;18.944;2024-03-17T07:41:12;5.63;;;2.27;;
63534;SDS011;55128;50.230;18.944;2024-03-17T07:46:13;7.23;;;2.10;;
63534;SDS011;55128;50.230;18.944;2024-03-17T07:51:14;5.75;;;2.10;;
63534;SDS011;55128;50.230;18.944;2024-03-17T07:56:16;5.10;;;1.70;;
63534;SDS011;55128;50.230;18.944;2024-03-17T08:01:17;7.90;;;2.22;;
63534;SDS011;55128;50.230;18.944;2024-03-17T08:06:18;3.83;;;1.55;;
63534;SDS011;55128;50.230;18.944;2024-03-17T08:11:19;5.80;;;1.90;;
63534;SDS011;55128;50.230;18.944;2024-03-17T08:16:19;6.80;;;2.10;;
63534;SDS011;55128;50.230;18.944;2024-03-17T08:21:19;5.53;;;1.90;;
63534;SDS011;55128;50.230;18.944;2024-03-17T08:26:20;6.30;;;2.10;;
63534;SDS011;55128;50.230;18.944;2024-03-17T08:31:20;5.20;;;1.85;;
63534;SDS011;55128;50.230;18.944;2024-03-17T08:36:21;7.32;;;1.83;;
63534;SDS011;55128;50.230;18.944;2024-03-17T08:41:21;6.60;;;1.80;;
63534;SDS011;55128;50.230;18.944;2024-03-17T08:46:21;4.77;;;1.60;;
63534;SDS011;55128;50.230;18.944;2024-03-17T08:51:22;6.40;;;2.80;;
63534;SDS011;55128;50.230;18.944;2024-03-17T08:56:22;4.70;;;1.63;;
63534;SDS011;55128;50.230;18.944;2024-03-17T09:01:23;5.78;;;1.50;;
63534;SDS011;55128;50.230;18.944;2024-03-17T09:06:24;4.75;;;1.45;;
63534;SDS011;55128;50.230;18.944;2024-03-17T09:11:27;5.32;;;1.58;;
63534;SDS011;55128;50.230;18.944;2024-03-17T09:16:28;3.67;;;1.70;;
63534;SDS011;55128;50.230;18.944;2024-03-17T09:21:30;5.13;;;1.87;;
63534;SDS011;55128;50.230;18.944;2024-03-17T09:26:30;4.38;;;1.50;;
63534;SDS011;55128;50.230;18.944;2024-03-17T09:31:31;5.28;;;1.50;;
63534;SDS011;55128;50.230;18.944;2024-03-17T09:36:34;4.10;;;1.50;;
63534;SDS011;55128;50.230;18.944;2024-03-17T09:41:35;5.32;;;1.52;;
63534;SDS011;55128;50.230;18.944;2024-03-17T09:46:38;5.70;;;1.90;;
63534;SDS011;55128;50.230;18.944;2024-03-17T09:51:38;4.90;;;1.65;;
63534;SDS011;55128;50.230;18.944;2024-03-17T09:56:39;5.18;;;1.63;;
63534;SDS011;55128;50.230;18.944;2024-03-17T10:01:40;4.00;;;1.15;;
63534;SDS011;55128;50.230;18.944;2024-03-17T10:06:45;5.85;;;2.53;;
63534;SDS011;55128;50.230;18.944;2024-03-17T10:11:50;3.80;;;1.63;;
63534;SDS011;55128;50.230;18.944;2024-03-17T10:16:52;4.27;;;1.40;;
63534;SDS011;55128;50.230;18.944;2024-03-17T10:22:02;4.05;;;1.20;;
63534;SDS011;55128;50.230;18.944;2024-03-17T10:27:03;5.10;;;1.30;;
63534;SDS011;55128;50.230;18.944;2024-03-17T10:32:13;6.18;;;1.45;;
63534;SDS011;55128;50.230;18.944;2024-03-17T10:37:15;4.85;;;1.40;;
63534;SDS011;55128;50.230;18.944;2024-03-17T10:42:26;4.70;;;1.40;;
63534;SDS011;55128;50.230;18.944;2024-03-17T10:47:36;3.75;;;1.30;;
63534;SDS011;55128;50.230;18.944;2024-03-17T10:52:36;6.90;;;1.52;;
63534;SDS011;55128;50.230;18.944;2024-03-17T10:57:46;4.65;;;1.58;;
63534;SDS011;55128;50.230;18.944;2024-03-17T11:02:51;3.95;;;1.13;;
63534;SDS011;55128;50.230;18.944;2024-03-17T11:07:55;5.53;;;1.40;;
63534;SDS011;55128;50.230;18.944;2024-03-17T11:13:00;5.05;;;1.60;;
63534;SDS011;55128;50.230;18.944;2024-03-17T11:23:12;4.80;;;1.30;;
63534;SDS011;55128;50.230;18.944;2024-03-17T11:38:55;3.22;;;1.10;;
63534;SDS011;55128;50.230;18.944;2024-03-17T11:49:24;4.43;;;1.60;;
63534;SDS011;55128;50.230;18.944;2024-03-17T11:54:28;4.88;;;1.30;;
63534;SDS011;55128;50.230;18.944;2024-03-17T11:59:30;5.25;;;1.30;;
63534;SDS011;55128;50.230;18.944;2024-03-17T12:04:30;4.60;;;1.93;;
63534;SDS011;55128;50.230;18.944;2024-03-17T12:09:31;6.03;;;1.40;;
63534;SDS011;55128;50.230;18.944;2024-03-17T12:14:32;5.45;;;1.30;;
63534;SDS011;55128;50.230;18.944;2024-03-17T12:19:33;4.85;;;1.40;;
63534;SDS011;55128;50.230;18.944;2024-03-17T12:24:35;6.80;;;1.30;;
63534;SDS011;55128;50.230;18.944;2024-03-17T12:29:37;5.07;;;1.85;;
63534;SDS011;55128;50.230;18.944;2024-03-17T12:34:40;4.78;;;1.42;;
63534;SDS011;55128;50.230;18.944;2024-03-17T12:39:41;4.32;;;1.45;;
63534;SDS011;55128;50.230;18.944;2024-03-17T12:44:48;4.07;;;1.45;;
63534;SDS011;55128;50.230;18.944;2024-03-17T12:49:50;3.95;;;1.20;;
63534;SDS011;55128;50.230;18.944;2024-03-17T12:55:04;3.97;;;1.30;;
63534;SDS011;55128;50.230;18.944;2024-03-17T13:00:24;6.03;;;1.90;;
63534;SDS011;55128;50.230;18.944;2024-03-17T13:05:35;5.00;;;1.40;;
63534;SDS011;55128;50.230;18.944;2024-03-17T13:10:36;7.82;;;1.90;;
63534;SDS011;55128;50.230;18.944;2024-03-17T13:15:36;6.25;;;1.77;;
63534;SDS011;55128;50.230;18.944;2024-03-17T13:20:37;7.95;;;1.90;;
63534;SDS011;55128;50.230;18.944;2024-03-17T13:25:37;2.80;;;1.30;;
63534;SDS011;55128;50.230;18.944;2024-03-17T13:30:37;2.88;;;1.42;;
63534;SDS011;55128;50.230;18.944;2024-03-17T13:35:38;4.65;;;1.10;;
63534;SDS011;55128;50.230;18.944;2024-03-17T13:40:39;5.43;;;1.60;;
63534;SDS011;55128;50.230;18.944;2024-03-17T13:45:42;6.25;;;1.88;;
63534;SDS011;55128;50.230;18.944;2024-03-17T13:50:48;4.90;;;1.88;;
63534;SDS011;55128;50.230;18.944;2024-03-17T13:55:49;7.22;;;2.00;;
63534;SDS011;55128;50.230;18.944;2024-03-17T14:00:51;4.53;;;1.48;;
63534;SDS011;55128;50.230;18.944;2024-03-17T14:05:53;5.40;;;1.95;;
63534;SDS011;55128;50.230;18.944;2024-03-17T14:10:53;13.02;;;6.35;;
63534;SDS011;55128;50.230;18.944;2024-03-17T14:15:56;6.50;;;2.80;;
63534;SDS011;55128;50.230;18.944;2024-03-17T14:20:57;4.50;;;2.03;;
63534;SDS011;55128;50.230;18.944;2024-03-17T14:25:57;4.60;;;1.65;;
63534;SDS011;55128;50.230;18.944;2024-03-17T14:30:58;15.80;;;3.65;;
63534;SDS011;55128;50.230;18.944;2024-03-17T14:35:58;5.17;;;2.00;;
63534;SDS011;55128;50.230;18.944;2024-03-17T14:40:58;6.97;;;2.25;;
63534;SDS011;55128;50.230;18.944;2024-03-17T14:45:59;8.38;;;2.97;;
63534;SDS011;55128;50.230;18.944;2024-03-17T14:50:59;12.02;;;4.60;;
63534;SDS011;55128;50.230;18.944;2024-03-17T14:55:59;4.20;;;2.15;;
63534;SDS011;55128;50.230;18.944;2024-03-17T15:01:00;6.67;;;2.20;;
63534;SDS011;55128;50.230;18.944;2024-03-17T15:06:00;5.10;;;2.25;;
63534;SDS011;55128;50.230;18.944;2024-03-17T15:11:01;5.63;;;1.98;;
63534;SDS011;55128;50.230;18.944;2024-03-17T15:16:02;6.93;;;2.17;;
63534;SDS011;55128;50.230;18.944;2024-03-17T15:21:04;6.93;;;2.17;;
63534;SDS011;55128;50.230;18.944;2024-03-17T15:26:07;5.78;;;1.67;;
63534;SDS011;55128;50.230;18.944;2024-03-17T15:31:12;5.70;;;1.60;;
63534;SDS011;55128;50.230;18.944;2024-03-17T15:36:13;4.25;;;1.70;;
63534;SDS011;55128;50.230;18.944;2024-03-17T15:41:13;5.18;;;1.88;;
63534;SDS011;55128;50.230;18.944;2024-03-17T15:46:15;6.13;;;2.25;;
63534;SDS011;55128;50.230;18.944;2024-03-17T15:51:16;7.03;;;1.88;;
63534;SDS011;55128;50.230;18.944;2024-03-17T15:56:18;5.35;;;2.00;;
63534;SDS011;55128;50.230;18.944;2024-03-17T16:01:18;7.47;;;2.37;;
63534;SDS011;55128;50.230;18.944;2024-03-17T16:06:19;6.07;;;2.05;;
63534;SDS011;55128;50.230;18.944;2024-03-17T16:11:26;6.60;;;2.08;;
63534;SDS011;55128;50.230;18.944;2024-03-17T16:16:28;9.20;;;3.03;;
63534;SDS011;55128;50.230;18.944;2024-03-17T16:21:30;5.13;;;2.25;;
63534;SDS011;55128;50.230;18.944;2024-03-17T16:26:30;8.98;;;3.80;;
63534;SDS011;55128;50.230;18.944;2024-03-17T16:31:31;9.85;;;3.83;;
63534;SDS011;55128;50.230;18.944;2024-03-17T16:36:32;7.60;;;2.95;;
63534;SDS011;55128;50.230;18.944;2024-03-17T16:41:35;9.23;;;2.85;;
63534;SDS011;55128;50.230;18.944;2024-03-17T16:51:50;10.20;;;3.33;;
63534;SDS011;55128;50.230;18.944;2024-03-17T16:56:52;11.25;;;4.40;;
63534;SDS011;55128;50.230;18.944;2024-03-17T17:01:53;13.60;;;4.97;;
63534;SDS011;55128;50.230;18.944;2024-03-17T17:06:53;11.75;;;5.68;;
63534;SDS011;55128;50.230;18.944;2024-03-17T17:11:57;11.07;;;4.47;;
63534;SDS011;55128;50.230;18.944;2024-03-17T17:16:57;14.90;;;5.03;;
63534;SDS011;55128;50.230;18.944;2024-03-17T17:21:59;14.35;;;6.00;;
63534;SDS011;55128;50.230;18.944;2024-03-17T17:27:03;21.02;;;9.00;;
63534;SDS011;55128;50.230;18.944;2024-03-17T17:32:08;18.08;;;6.90;;
63534;SDS011;55128;50.230;18.944;2024-03-17T17:37:09;23.67;;;7.10;;
63534;SDS011;55128;50.230;18.944;2024-03-17T17:42:12;8.18;;;2.88;;
63534;SDS011;55128;50.230;18.944;2024-03-17T17:47:12;9.68;;;2.67;;
63534;SDS011;55128;50.230;18.944;2024-03-17T17:52:12;6.55;;;2.45;;
63534;SDS011;55128;50.230;18.944;2024-03-17T17:57:13;7.18;;;2.28;;
63534;SDS011;55128;50.230;18.944;2024-03-17T18:02:13;6.55;;;2.42;;
63534;SDS011;55128;50.230;18.944;2024-03-17T18:07:13;7.25;;;2.92;;
63534;SDS011;55128;50.230;18.944;2024-03-17T18:12:14;8.20;;;2.55;;
63534;SDS011;55128;50.230;18.944;2024-03-17T18:17:14;9.27;;;3.47;;
63534;SDS011;55128;50.230;18.944;2024-03-17T18:22:17;12.15;;;4.15;;
63534;SDS011;55128;50.230;18.944;2024-03-17T18:27:18;10.63;;;4.00;;
63534;SDS011;55128;50.230;18.944;2024-03-17T18:32:18;13.87;;;4.13;;
63534;SDS011;55128;50.230;18.944;2024-03-17T18:37:18;8.17;;;3.00;;
63534;SDS011;55128;50.230;18.944;2024-03-17T18:42:20;8.23;;;3.70;;
63534;SDS011;55128;50.230;18.944;2024-03-17T18:47:21;8.52;;;3.40;;
63534;SDS011;55128;50.230;18.944;2024-03-17T18:52:21;9.45;;;3.60;;
63534;SDS011;55128;50.230;18.944;2024-03-17T18:57:21;9.60;;;3.65;;
63534;SDS011;55128;50.230;18.944;2024-03-17T19:02:22;17.30;;;7.40;;
63534;SDS011;55128;50.230;18.944;2024-03-17T19:07:23;16.95;;;7.82;;
63534;SDS011;55128;50.230;18.944;2024-03-17T19:12:28;9.45;;;5.00;;
63534;SDS011;55128;50.230;18.944;2024-03-17T19:17:28;13.85;;;5.28;;
63534;SDS011;55128;50.230;18.944;2024-03-17T19:22:39;13.23;;;5.85;;
63534;SDS011;55128;50.230;18.944;2024-03-17T19:27:40;10.43;;;5.00;;
63534;SDS011;55128;50.230;18.944;2024-03-17T19:32:40;10.70;;;4.10;;
63534;SDS011;55128;50.230;18.944;2024-03-17T19:37:40;14.98;;;7.05;;
63534;SDS011;55128;50.230;18.944;2024-03-17T19:42:41;20.45;;;7.75;;
63534;SDS011;55128;50.230;18.944;2024-03-17T19:47:42;21.00;;;9.20;;
63534;SDS011;55128;50.230;18.944;2024-03-17T19:52:43;15.38;;;6.43;;
63534;SDS011;55128;50.230;18.944;2024-03-17T19:57:43;13.32;;;7.30;;
63534;SDS011;55128;50.230;18.944;2024-03-17T20:02:43;14.43;;;7.75;;
63534;SDS011;55128;50.230;18.944;2024-03-17T20:07:46;8.23;;;4.93;;
63534;SDS011;55128;50.230;18.944;2024-03-17T20:12:47;10.25;;;6.40;;
63534;SDS011;55128;50.230;18.944;2024-03-17T20:17:48;22.95;;;12.73;;
63534;SDS011;55128;50.230;18.944;2024-03-17T20:22:49;11.20;;;6.13;;
63534;SDS011;55128;50.230;18.944;2024-03-17T20:27:50;11.55;;;5.07;;
63534;SDS011;55128;50.230;18.944;2024-03-17T20:32:50;9.32;;;5.10;;
63534;SDS011;55128;50.230;18.944;2024-03-17T20:37:51;8.10;;;5.30;;
63534;SDS011;55128;50.230;18.944;2024-03-17T20:42:52;10.55;;;6.18;;
63534;SDS011;55128;50.230;18.944;2024-03-17T20:47:54;12.48;;;6.50;;
63534;SDS011;55128;50.230;18.944;2024-03-17T20:52:55;14.95;;;9.50;;
63534;SDS011;55128;50.230;18.944;2024-03-17T20:57:55;15.75;;;6.43;;
63534;SDS011;55128;50.230;18.944;2024-03-17T21:02:56;12.18;;;5.90;;
63534;SDS011;55128;50.230;18.944;2024-03-17T21:07:57;12.43;;;6.03;;
63534;SDS011;55128;50.230;18.944;2024-03-17T21:13:00;14.23;;;6.13;;
63534;SDS011;55128;50.230;18.944;2024-03-17T21:18:00;11.07;;;5.40;;
63534;SDS011;55128;50.230;18.944;2024-03-17T21:23:01;7.63;;;4.50;;
63534;SDS011;55128;50.230;18.944;2024-03-17T21:28:02;9.93;;;5.68;;
63534;SDS011;55128;50.230;18.944;2024-03-17T21:33:03;8.85;;;5.43;;
63534;SDS011;55128;50.230;18.944;2024-03-17T21:38:03;7.20;;;3.90;;
63534;SDS011;55128;50.230;18.944;2024-03-17T21:43:04;9.90;;;8.90;;
63534;SDS011;55128;50.230;18.944;2024-03-17T21:48:04;7.47;;;5.22;;
63534;SDS011;55128;50.230;18.944;2024-03-17T21:53:05;8.98;;;5.53;;
63534;SDS011;55128;50.230;18.944;2024-03-17T21:58:05;9.37;;;6.30;;
63534;SDS011;55128;50.230;18.944;2024-03-17T22:03:05;7.97;;;4.70;;
63534;SDS011;55128;50.230;18.944;2024-03-17T22:08:08;6.38;;;4.38;;
63534;SDS011;55128;50.230;18.944;2024-03-17T22:13:08;9.10;;;3.85;;
63534;SDS011;55128;50.230;18.944;2024-03-17T22:18:08;6.90;;;2.90;;
63534;SDS011;55128;50.230;18.944;2024-03-17T22:23:09;3.75;;;2.17;;
63534;SDS011;55128;50.230;18.944;2024-03-17T22:28:09;3.97;;;2.47;;
63534;SDS011;55128;50.230;18.944;2024-03-17T22:33:10;3.05;;;1.67;;
63534;SDS011;55128;50.230;18.944;2024-03-17T22:38:10;3.42;;;1.92;;
63534;SDS011;55128;50.230;18.944;2024-03-17T22:43:11;4.03;;;1.85;;
63534;SDS011;55128;50.230;18.944;2024-03-17T22:48:11;3.38;;;1.60;;
63534;SDS011;55128;50.230;18.944;2024-03-17T22:53:14;2.72;;;1.35;;
63534;SDS011;55128;50.230;18.944;2024-03-17T22:58:20;9.07;;;2.58;;
63534;SDS011;55128;50.230;18.944;2024-03-17T23:03:23;6.97;;;2.95;;
63534;SDS011;55128;50.230;18.944;2024-03-17T23:08:23;6.57;;;3.17;;
63534;SDS011;55128;50.230;18.944;2024-03-17T23:13:27;6.87;;;3.53;;
63534;SDS011;55128;50.230;18.944;2024-03-17T23:18:28;7.97;;;4.40;;
63534;SDS011;55128;50.230;18.944;2024-03-17T23:23:29;8.13;;;4.00;;
63534;SDS011;55128;50.230;18.944;2024-03-17T23:28:29;8.47;;;3.87;;
63534;SDS011;55128;50.230;18.944;2024-03-17T23:33:29;9.05;;;3.22;;
63534;SDS011;55128;50.230;18.944;2024-03-17T23:38:30;5.40;;;2.80;;
63534;SDS011;55128;50.230;18.944;2024-03-17T23:43:30;3.25;;;1.70;;
63534;SDS011;55128;50.230;18.944;2024-03-17T23:48:30;2.70;;;1.33;;
63534;SDS011;55128;50.230;18.944;2024-03-17T23:53:31;3.22;;;1.77;;
63534;SDS011;55128;50.230;18.944;2024-03-17T23:58:31;3.60;;;1.37;;
